createdAt,value
2017-02-10T00:00:19.328Z,1028
2017-02-10T00:01:21.779Z,1028
2017-02-10T00:03:26.623Z,1027.9
2017-02-10T00:04:29.062Z,1027.9
2017-02-10T00:05:31.502Z,1027.8
2017-02-10T00:06:33.446Z,1027.8
2017-02-10T00:07:35.888Z,1027.8
2017-02-10T00:08:38.339Z,1027.9
2017-02-10T00:09:40.781Z,1027.7
2017-02-10T00:10:43.230Z,1027.6
2017-02-10T00:11:45.670Z,1027.8
2017-02-10T00:12:48.443Z,1027.9
2017-02-10T00:13:50.718Z,1027.7
2017-02-10T00:14:53.164Z,1027.6
2017-02-10T00:16:58.016Z,1027.7
2017-02-10T00:18:00.463Z,1027.7
2017-02-10T00:19:02.907Z,1027.7
2017-02-10T00:20:05.346Z,1027.6
2017-02-10T00:21:07.628Z,1027.6
2017-02-10T00:22:09.899Z,1027.8
2017-02-10T00:23:12.341Z,1027.6
2017-02-10T00:24:14.779Z,1027.6
2017-02-10T00:25:17.225Z,1027.5
2017-02-10T00:26:19.674Z,1027.5
2017-02-10T00:27:22.115Z,1027.5
2017-02-10T00:28:24.555Z,1027.5
2017-02-10T00:29:26.991Z,1027.5
2017-02-10T00:30:29.439Z,1027.5
2017-02-10T00:32:34.305Z,1027.5
2017-02-10T00:33:36.625Z,1027.5
2017-02-10T00:34:39.071Z,1027.4
2017-02-10T00:35:41.511Z,1027.5
2017-02-10T00:36:43.959Z,1027.5
2017-02-10T00:37:46.402Z,1027.5
2017-02-10T00:38:48.841Z,1027.4
2017-02-10T00:39:51.284Z,1027.5
2017-02-10T00:40:53.729Z,1027.4
2017-02-10T00:41:56.173Z,1027.4
2017-02-10T00:42:58.611Z,1027.4
2017-02-10T00:44:01.051Z,1027.4
2017-02-10T00:45:03.494Z,1027.4
2017-02-10T00:46:05.933Z,1027.4
2017-02-10T00:47:08.397Z,1027.4
2017-02-10T00:48:10.841Z,1027.3
2017-02-10T00:49:13.282Z,1027.4
2017-02-10T00:50:15.724Z,1027.3
2017-02-10T00:51:18.168Z,1027.4
2017-02-10T00:52:20.616Z,1027.4
2017-02-10T00:53:23.057Z,1027.4
2017-02-10T00:54:25.498Z,1027.3
2017-02-10T00:55:27.946Z,1027.3
2017-02-10T00:56:30.389Z,1027.3
2017-02-10T00:57:32.857Z,1027.8
2017-02-10T00:58:35.293Z,1027.4
2017-02-10T00:59:37.736Z,1027.3
2017-02-10T01:00:40.175Z,1027.3
2017-02-10T01:01:42.615Z,1027.4
2017-02-10T01:02:45.055Z,1027.3
2017-02-10T01:03:47.005Z,1027.4
2017-02-10T01:04:49.454Z,1027.4
2017-02-10T01:05:51.895Z,1027.3
2017-02-10T01:06:54.341Z,1027.3
2017-02-10T01:07:56.781Z,1027.2
2017-02-10T01:08:59.225Z,1027.3
2017-02-10T01:10:02.029Z,1027.3
2017-02-10T01:11:03.991Z,1027.3
2017-02-10T01:12:06.604Z,1027.3
2017-02-10T01:13:09.046Z,1027.2
2017-02-10T01:14:11.513Z,1027.3
2017-02-10T01:15:13.961Z,1027.4
2017-02-10T01:16:16.240Z,1027.3
2017-02-10T01:17:19.027Z,1027.3
2017-02-10T01:18:21.468Z,1027.3
2017-02-10T01:19:23.411Z,1027.3
2017-02-10T01:20:25.856Z,1027.2
2017-02-10T01:21:28.301Z,1027.3
2017-02-10T01:22:30.747Z,1027.2
2017-02-10T01:23:33.187Z,1027.2
2017-02-10T01:24:35.627Z,1027.2
2017-02-10T01:25:38.071Z,1027.2
2017-02-10T01:26:40.510Z,1027.2
2017-02-10T01:27:42.950Z,1027.1
2017-02-10T01:28:45.388Z,1027.1
2017-02-10T01:29:47.828Z,1027.2
2017-02-10T01:30:50.268Z,1027.2
2017-02-10T01:31:52.708Z,1027.1
2017-02-10T01:32:55.175Z,1027.1
2017-02-10T01:33:57.451Z,1027.2
2017-02-10T01:37:04.708Z,1027.3
2017-02-10T01:38:07.146Z,1027.2
2017-02-10T01:39:09.782Z,1027.2
2017-02-10T01:40:12.223Z,1027.1
2017-02-10T01:41:14.833Z,1027.1
2017-02-10T01:42:16.798Z,1027.1
2017-02-10T01:43:19.242Z,1027
2017-02-10T01:44:21.708Z,1027
2017-02-10T01:45:24.148Z,1027.1
2017-02-10T01:47:28.994Z,1027.1
2017-02-10T01:48:31.455Z,1027
2017-02-10T01:49:33.727Z,1027
2017-02-10T01:50:36.170Z,1026.9
2017-02-10T01:51:38.609Z,1027
2017-02-10T01:52:41.054Z,1026.9
2017-02-10T01:53:43.496Z,1026.9
2017-02-10T01:54:45.943Z,1027
2017-02-10T01:55:48.381Z,1026.9
2017-02-10T01:56:50.827Z,1026.9
2017-02-10T01:57:53.271Z,1026.8
2017-02-10T01:58:55.714Z,1026.9
2017-02-10T01:59:58.159Z,1026.9
2017-02-10T02:01:00.602Z,1026.9
2017-02-10T02:02:02.885Z,1026.9
2017-02-10T02:03:05.335Z,1026.9
2017-02-10T02:04:07.773Z,1026.9
2017-02-10T02:05:10.552Z,1026.9
2017-02-10T02:06:12.891Z,1026.9
2017-02-10T02:07:15.167Z,1027
2017-02-10T02:08:17.609Z,1026.9
2017-02-10T02:09:20.053Z,1026.8
2017-02-10T02:10:22.497Z,1027
2017-02-10T02:11:24.943Z,1026.9
2017-02-10T02:12:27.407Z,1026.9
2017-02-10T02:13:29.844Z,1026.8
2017-02-10T02:14:32.309Z,1026.9
2017-02-10T02:15:34.754Z,1026.9
2017-02-10T02:16:37.194Z,1026.9
2017-02-10T02:17:39.144Z,1026.8
2017-02-10T02:18:41.588Z,1026.8
2017-02-10T02:19:44.030Z,1026.9
2017-02-10T02:20:46.474Z,1027
2017-02-10T02:21:48.917Z,1026.9
2017-02-10T02:22:51.357Z,1026.9
2017-02-10T02:23:53.796Z,1026.9
2017-02-10T02:24:56.237Z,1026.8
2017-02-10T02:25:58.705Z,1026.8
2017-02-10T02:27:01.148Z,1026.7
2017-02-10T02:28:03.592Z,1026.9
2017-02-10T02:29:06.031Z,1026.8
2017-02-10T02:30:08.506Z,1027
2017-02-10T02:31:10.784Z,1026.7
2017-02-10T02:32:13.060Z,1026.8
2017-02-10T02:33:15.676Z,1026.8
2017-02-10T02:34:18.115Z,1026.9
2017-02-10T02:35:20.554Z,1026.9
2017-02-10T02:36:23.002Z,1026.8
2017-02-10T02:37:25.438Z,1026.8
2017-02-10T02:38:27.881Z,1026.9
2017-02-10T02:39:30.326Z,1026.8
2017-02-10T02:41:36.006Z,1026.9
2017-02-10T02:42:37.519Z,1026.8
2017-02-10T02:43:39.963Z,1027
2017-02-10T02:44:42.451Z,1026.7
2017-02-10T02:45:44.894Z,1026.8
2017-02-10T02:46:47.334Z,1026.8
2017-02-10T02:47:49.781Z,1026.7
2017-02-10T02:48:52.226Z,1026.9
2017-02-10T02:49:54.666Z,1026.8
2017-02-10T02:50:56.625Z,1026.7
2017-02-10T02:51:59.067Z,1026.8
2017-02-10T02:53:01.511Z,1026.8
2017-02-10T02:54:03.954Z,1026.8
2017-02-10T02:55:06.395Z,1026.8
2017-02-10T02:56:08.844Z,1026.7
2017-02-10T02:57:11.281Z,1026.7
2017-02-10T02:58:13.555Z,1026.7
2017-02-10T02:59:16.164Z,1026.8
2017-02-10T03:00:18.605Z,1026.7
2017-02-10T03:01:21.049Z,1026.7
2017-02-10T03:02:23.504Z,1026.7
2017-02-10T03:03:25.966Z,1026.8
2017-02-10T03:04:28.411Z,1026.8
2017-02-10T03:05:30.853Z,1026.8
2017-02-10T03:06:33.296Z,1026.8
2017-02-10T03:07:35.746Z,1026.8
2017-02-10T03:08:38.191Z,1027
2017-02-10T03:10:43.043Z,1026.8
2017-02-10T03:11:44.982Z,1026.7
2017-02-10T03:12:47.428Z,1026.9
2017-02-10T03:13:49.909Z,1026.8
2017-02-10T03:14:52.350Z,1026.7
2017-02-10T03:15:54.789Z,1026.7
2017-02-10T03:16:57.224Z,1026.7
2017-02-10T03:17:59.660Z,1026.9
2017-02-10T03:19:02.101Z,1026.7
2017-02-10T03:20:04.540Z,1026.8
2017-02-10T03:21:06.810Z,1026.7
2017-02-10T03:22:09.251Z,1026.7
2017-02-10T03:24:14.093Z,1026.8
2017-02-10T03:26:18.935Z,1026.7
2017-02-10T03:27:21.376Z,1026.7
2017-02-10T03:28:23.813Z,1026.7
2017-02-10T03:29:26.248Z,1026.7
2017-02-10T03:30:28.522Z,1026.7
2017-02-10T03:31:30.963Z,1026.7
2017-02-10T03:32:33.406Z,1026.7
2017-02-10T03:33:35.846Z,1026.6
2017-02-10T03:36:43.091Z,1026.7
2017-02-10T03:37:45.531Z,1026.8
2017-02-10T03:38:47.970Z,1026.7
2017-02-10T03:39:50.406Z,1026.6
2017-02-10T03:40:52.849Z,1026.6
2017-02-10T03:41:55.289Z,1026.7
2017-02-10T03:42:57.728Z,1026.6
2017-02-10T03:44:00.167Z,1026.6
2017-02-10T03:45:02.607Z,1026.6
2017-02-10T03:46:05.047Z,1026.6
2017-02-10T03:48:09.886Z,1026.6
2017-02-10T03:49:12.330Z,1026.6
2017-02-10T03:50:14.772Z,1026.6
2017-02-10T03:51:17.207Z,1026.6
2017-02-10T03:52:19.695Z,1026.6
2017-02-10T03:53:22.159Z,1026.6
2017-02-10T03:54:24.119Z,1026.6
2017-02-10T03:55:26.560Z,1026.6
2017-02-10T03:56:28.998Z,1026.5
2017-02-10T03:57:31.436Z,1026.6
2017-02-10T03:58:33.875Z,1026.6
2017-02-10T03:59:36.310Z,1026.5
2017-02-10T04:00:38.746Z,1026.5
2017-02-10T04:01:41.183Z,1026.5
2017-02-10T04:02:43.622Z,1026.6
2017-02-10T04:03:46.061Z,1026.5
2017-02-10T04:04:48.501Z,1026.5
2017-02-10T04:05:50.936Z,1026.5
2017-02-10T04:06:53.376Z,1026.4
2017-02-10T04:07:55.816Z,1026.5
2017-02-10T04:08:58.274Z,1026.5
2017-02-10T04:10:00.710Z,1026.5
2017-02-10T04:11:02.984Z,1026.6
2017-02-10T04:12:05.430Z,1026.5
2017-02-10T04:13:07.866Z,1026.6
2017-02-10T04:14:10.306Z,1026.5
2017-02-10T04:15:12.747Z,1026.5
2017-02-10T04:16:15.022Z,1026.6
2017-02-10T04:17:17.458Z,1026.5
2017-02-10T04:18:19.894Z,1026.5
2017-02-10T04:19:22.334Z,1026.5
2017-02-10T04:20:24.774Z,1026.4
2017-02-10T04:21:27.237Z,1026.6
2017-02-10T04:22:29.681Z,1026.5
2017-02-10T04:23:32.144Z,1026.5
2017-02-10T04:24:34.579Z,1026.4
2017-02-10T04:25:37.023Z,1026.5
2017-02-10T04:26:39.462Z,1026.5
2017-02-10T04:27:41.938Z,1026.4
2017-02-10T04:28:43.873Z,1026.3
2017-02-10T04:29:46.648Z,1026.4
2017-02-10T04:30:49.088Z,1026.4
2017-02-10T04:31:51.531Z,1026.4
2017-02-10T04:32:53.969Z,1026.4
2017-02-10T04:33:56.406Z,1026.4
2017-02-10T04:34:58.849Z,1026.3
2017-02-10T04:36:01.289Z,1026.3
2017-02-10T04:37:03.230Z,1026.3
2017-02-10T04:38:06.003Z,1026.4
2017-02-10T04:39:08.462Z,1026.4
2017-02-10T04:40:10.899Z,1026.3
2017-02-10T04:42:15.571Z,1026.4
2017-02-10T04:44:20.150Z,1026.3
2017-02-10T04:45:22.586Z,1026.3
2017-02-10T04:46:25.021Z,1026.4
2017-02-10T04:47:27.458Z,1026.4
2017-02-10T04:48:29.893Z,1026.4
2017-02-10T04:49:32.359Z,1026.3
2017-02-10T04:50:34.796Z,1026.4
2017-02-10T04:51:37.234Z,1026.4
2017-02-10T04:52:39.674Z,1026.3
2017-02-10T04:53:42.133Z,1026.3
2017-02-10T04:54:44.574Z,1026.3
2017-02-10T04:55:47.013Z,1026.2
2017-02-10T04:58:54.282Z,1026.3
2017-02-10T04:59:56.718Z,1026.3
2017-02-10T05:00:59.160Z,1026.3
2017-02-10T05:02:01.625Z,1026.3
2017-02-10T05:03:04.072Z,1026.3
2017-02-10T05:05:08.913Z,1026.2
2017-02-10T05:06:11.348Z,1026.3
2017-02-10T05:07:13.788Z,1026.3
2017-02-10T05:08:16.232Z,1026.2
2017-02-10T05:09:18.168Z,1026.2
2017-02-10T05:10:20.616Z,1026.4
2017-02-10T05:12:25.465Z,1026.3
2017-02-10T05:13:27.934Z,1026.2
2017-02-10T05:14:30.395Z,1026.2
2017-02-10T05:15:32.834Z,1026.2
2017-02-10T05:16:35.269Z,1026.2
2017-02-10T05:17:37.708Z,1026.2
2017-02-10T05:18:40.146Z,1026.2
2017-02-10T05:19:42.589Z,1026.2
2017-02-10T05:20:45.032Z,1026.2
2017-02-10T05:21:47.471Z,1026.2
2017-02-10T05:22:49.907Z,1026.2
2017-02-10T05:23:52.346Z,1026.1
2017-02-10T05:24:54.786Z,1026.3
2017-02-10T05:26:59.464Z,1026.3
2017-02-10T05:28:01.904Z,1026.2
2017-02-10T05:29:04.338Z,1026.1
2017-02-10T05:30:06.610Z,1026.2
2017-02-10T05:31:09.389Z,1026.3
2017-02-10T05:32:11.320Z,1026.3
2017-02-10T05:34:16.499Z,1026.2
2017-02-10T05:35:18.938Z,1026.3
2017-02-10T05:36:21.378Z,1026.2
2017-02-10T05:37:23.818Z,1026.3
2017-02-10T05:38:26.256Z,1026.2
2017-02-10T05:39:28.700Z,1026.3
2017-02-10T05:40:30.638Z,1026.2
2017-02-10T05:41:33.076Z,1026.2
2017-02-10T05:42:35.516Z,1026.2
2017-02-10T05:43:37.981Z,1026.3
2017-02-10T05:44:40.417Z,1026.2
2017-02-10T05:45:42.857Z,1026.2
2017-02-10T05:46:45.293Z,1026.2
2017-02-10T05:47:47.734Z,1026.2
2017-02-10T05:48:50.174Z,1026.3
2017-02-10T05:49:52.611Z,1026.2
2017-02-10T05:50:55.054Z,1026.4
2017-02-10T05:51:57.503Z,1026.4
2017-02-10T05:52:59.941Z,1026.3
2017-02-10T05:55:04.793Z,1026.3
2017-02-10T05:56:07.252Z,1026.5
2017-02-10T05:57:09.523Z,1026.4
2017-02-10T05:58:11.959Z,1026.4
2017-02-10T05:59:14.235Z,1026.3
2017-02-10T06:00:16.676Z,1026.4
2017-02-10T06:01:19.115Z,1026.4
2017-02-10T06:02:21.388Z,1026.3
2017-02-10T06:03:23.840Z,1026.2
2017-02-10T06:04:26.286Z,1026.3
2017-02-10T06:05:28.727Z,1026.2
2017-02-10T06:07:33.574Z,1026.3
2017-02-10T06:08:36.010Z,1026.3
2017-02-10T06:09:38.470Z,1026.3
2017-02-10T06:10:40.910Z,1026.4
2017-02-10T06:11:43.351Z,1026.3
2017-02-10T06:12:45.797Z,1026.3
2017-02-10T06:13:48.244Z,1026.3
2017-02-10T06:14:50.683Z,1026.4
2017-02-10T06:15:53.128Z,1026.3
2017-02-10T06:16:55.573Z,1026.5
2017-02-10T06:17:58.011Z,1026.5
2017-02-10T06:19:00.451Z,1026.5
2017-02-10T06:20:02.890Z,1026.4
2017-02-10T06:21:05.162Z,1026.4
2017-02-10T06:22:07.626Z,1026.4
2017-02-10T06:23:09.729Z,1026.4
2017-02-10T06:24:12.166Z,1026.3
2017-02-10T06:25:14.942Z,1026.4
2017-02-10T06:26:16.904Z,1026.4
2017-02-10T06:27:19.680Z,1026.4
2017-02-10T06:28:22.119Z,1026.4
2017-02-10T06:29:24.554Z,1026.3
2017-02-10T06:30:26.995Z,1026.4
2017-02-10T06:31:29.434Z,1026.4
2017-02-10T06:32:31.368Z,1026.5
2017-02-10T06:33:33.828Z,1026.5
2017-02-10T06:34:36.273Z,1026.4
2017-02-10T06:35:38.710Z,1026.4
2017-02-10T06:36:41.150Z,1026.5
2017-02-10T06:38:45.999Z,1026.6
2017-02-10T06:39:48.443Z,1026.5
2017-02-10T06:40:50.881Z,1026.6
2017-02-10T06:41:53.316Z,1026.6
2017-02-10T06:42:55.752Z,1026.6
2017-02-10T06:43:58.190Z,1026.6
2017-02-10T06:45:00.639Z,1026.6
2017-02-10T06:46:03.087Z,1026.5
2017-02-10T06:47:05.528Z,1026.5
2017-02-10T06:48:07.799Z,1026.6
2017-02-10T06:49:10.239Z,1026.6
2017-02-10T06:51:14.977Z,1026.5
2017-02-10T06:52:17.425Z,1026.6
2017-02-10T06:53:19.886Z,1026.6
2017-02-10T06:54:22.329Z,1026.6
2017-02-10T06:55:24.818Z,1026.8
2017-02-10T06:56:27.259Z,1026.6
2017-02-10T06:57:29.699Z,1026.6
2017-02-10T06:58:32.136Z,1026.7
2017-02-10T06:59:34.581Z,1026.8
2017-02-10T07:00:37.022Z,1026.6
2017-02-10T07:01:38.978Z,1026.7
2017-02-10T07:02:41.415Z,1026.7
2017-02-10T07:03:43.880Z,1026.7
2017-02-10T07:04:46.317Z,1026.8
2017-02-10T07:05:48.756Z,1026.7
2017-02-10T07:06:51.197Z,1026.7
2017-02-10T07:07:53.660Z,1026.7
2017-02-10T07:08:56.119Z,1026.7
2017-02-10T07:09:58.555Z,1026.7
2017-02-10T07:11:00.991Z,1026.8
2017-02-10T07:12:03.434Z,1026.7
2017-02-10T07:13:05.704Z,1026.7
2017-02-10T07:14:08.145Z,1026.7
2017-02-10T07:15:10.587Z,1026.6
2017-02-10T07:16:13.026Z,1026.6
2017-02-10T07:17:15.641Z,1026.7
2017-02-10T07:18:18.083Z,1026.6
2017-02-10T07:19:20.025Z,1026.6
2017-02-10T07:20:22.490Z,1026.6
2017-02-10T07:21:24.934Z,1026.6
2017-02-10T07:22:27.376Z,1026.6
2017-02-10T07:23:29.815Z,1026.6
2017-02-10T07:24:32.256Z,1026.5
2017-02-10T07:25:34.618Z,1026.6
2017-02-10T07:26:37.089Z,1026.6
2017-02-10T07:27:39.526Z,1026.6
2017-02-10T07:28:41.967Z,1026.6
2017-02-10T07:29:44.411Z,1026.6
2017-02-10T07:30:46.856Z,1026.6
2017-02-10T07:31:49.295Z,1026.6
2017-02-10T07:32:51.736Z,1026.7
2017-02-10T07:33:54.176Z,1026.6
2017-02-10T07:34:56.609Z,1026.6
2017-02-10T07:35:59.045Z,1026.6
2017-02-10T07:37:01.485Z,1026.6
2017-02-10T07:38:03.925Z,1026.6
2017-02-10T07:39:06.366Z,1026.6
2017-02-10T07:40:08.807Z,1026.7
2017-02-10T07:41:11.246Z,1026.6
2017-02-10T07:43:16.087Z,1026.6
2017-02-10T07:44:18.527Z,1026.6
2017-02-10T07:45:20.709Z,1026.6
2017-02-10T07:46:23.150Z,1026.6
2017-02-10T07:47:25.423Z,1026.6
2017-02-10T07:48:27.862Z,1026.6
2017-02-10T07:50:32.706Z,1026.6
2017-02-10T07:51:35.151Z,1026.7
2017-02-10T07:52:37.588Z,1026.6
2017-02-10T07:53:39.862Z,1026.6
2017-02-10T07:54:42.346Z,1026.7
2017-02-10T07:55:45.119Z,1026.6
2017-02-10T07:56:47.555Z,1026.6
2017-02-10T07:57:49.998Z,1026.7
2017-02-10T07:58:52.436Z,1026.6
2017-02-10T07:59:54.373Z,1026.6
2017-02-10T08:00:56.814Z,1026.6
2017-02-10T08:01:59.259Z,1026.7
2017-02-10T08:03:01.703Z,1026.6
2017-02-10T08:04:04.144Z,1026.6
2017-02-10T08:05:06.589Z,1026.6
2017-02-10T08:06:09.029Z,1026.6
2017-02-10T08:07:11.470Z,1026.6
2017-02-10T08:08:14.140Z,1026.6
2017-02-10T08:09:16.577Z,1026.6
2017-02-10T08:11:21.419Z,1026.6
2017-02-10T08:12:23.861Z,1026.6
2017-02-10T08:13:26.302Z,1026.5
2017-02-10T08:14:28.740Z,1026.6
2017-02-10T08:15:31.180Z,1026.5
2017-02-10T08:16:33.616Z,1026.5
2017-02-10T08:17:35.553Z,1026.6
2017-02-10T08:18:37.993Z,1026.6
2017-02-10T08:19:40.435Z,1026.6
2017-02-10T08:21:45.288Z,1026.6
2017-02-10T08:22:47.728Z,1026.5
2017-02-10T08:23:50.174Z,1026.6
2017-02-10T08:24:52.617Z,1026.5
2017-02-10T08:25:55.057Z,1026.6
2017-02-10T08:26:57.834Z,1026.6
2017-02-10T08:28:00.273Z,1026.6
2017-02-10T08:29:02.714Z,1026.5
2017-02-10T08:30:04.651Z,1026.5
2017-02-10T08:31:07.095Z,1026.5
2017-02-10T08:32:09.721Z,1026.5
2017-02-10T08:33:12.165Z,1026.5
2017-02-10T08:34:14.457Z,1026.5
2017-02-10T08:35:16.898Z,1026.4
2017-02-10T08:36:19.338Z,1026.4
2017-02-10T08:37:21.777Z,1026.4
2017-02-10T08:38:24.219Z,1026.4
2017-02-10T08:39:26.683Z,1026.4
2017-02-10T08:40:29.120Z,1026.4
2017-02-10T08:41:31.555Z,1026.4
2017-02-10T08:42:33.993Z,1026.3
2017-02-10T08:43:36.429Z,1026.3
2017-02-10T08:44:38.868Z,1026.3
2017-02-10T08:45:41.310Z,1026.5
2017-02-10T08:47:46.154Z,1026.4
2017-02-10T08:48:48.595Z,1026.3
2017-02-10T08:49:51.034Z,1026.4
2017-02-10T08:51:55.882Z,1026.3
2017-02-10T08:52:58.321Z,1026.2
2017-02-10T08:54:00.766Z,1026.2
2017-02-10T08:55:03.210Z,1026.2
2017-02-10T08:56:05.651Z,1026.1
2017-02-10T08:57:08.092Z,1026.1
2017-02-10T08:58:10.532Z,1026.2
2017-02-10T08:59:12.996Z,1026.3
2017-02-10T09:00:15.602Z,1026.2
2017-02-10T09:01:18.111Z,1026.2
2017-02-10T09:02:20.382Z,1026.1
2017-02-10T09:03:22.821Z,1026
2017-02-10T09:04:25.263Z,1026.1
2017-02-10T09:05:27.704Z,1026
2017-02-10T09:06:30.144Z,1026.1
2017-02-10T09:07:32.580Z,1026
2017-02-10T09:08:35.029Z,1026.1
2017-02-10T09:09:37.470Z,1026.1
2017-02-10T09:10:39.906Z,1026.1
2017-02-10T09:11:41.997Z,1026.2
2017-02-10T09:12:44.432Z,1026.1
2017-02-10T09:13:46.869Z,1026.1
2017-02-10T09:14:49.309Z,1026
2017-02-10T09:15:51.750Z,1026
2017-02-10T09:16:54.191Z,1026
2017-02-10T09:18:59.543Z,1026.1
2017-02-10T09:20:01.527Z,1026
2017-02-10T09:21:03.969Z,1026.4
2017-02-10T09:22:06.409Z,1026.1
2017-02-10T09:23:09.184Z,1026.2
2017-02-10T09:24:11.628Z,1026.2
2017-02-10T09:25:13.730Z,1026.2
2017-02-10T09:26:16.505Z,1026.1
2017-02-10T09:27:18.941Z,1026.3
2017-02-10T09:28:21.381Z,1026.3
2017-02-10T09:29:23.819Z,1026.2
2017-02-10T09:30:26.091Z,1026.2
2017-02-10T09:31:28.530Z,1026.2
2017-02-10T09:32:30.972Z,1026.2
2017-02-10T09:33:33.414Z,1026.1
2017-02-10T09:34:35.857Z,1026.1
2017-02-10T09:35:38.298Z,1026.1
2017-02-10T09:36:40.738Z,1026.1
2017-02-10T09:37:43.177Z,1026.1
2017-02-10T09:38:45.452Z,1026.1
2017-02-10T09:39:47.894Z,1026.1
2017-02-10T09:40:50.338Z,1026.1
2017-02-10T09:41:52.782Z,1026.1
2017-02-10T09:42:55.226Z,1026.3
2017-02-10T09:43:57.665Z,1026
2017-02-10T09:45:00.105Z,1026
2017-02-10T09:46:02.544Z,1026.3
2017-02-10T09:47:04.990Z,1026.1
2017-02-10T09:48:07.464Z,1026.1
2017-02-10T09:49:10.241Z,1026.2
2017-02-10T09:50:12.686Z,1026
2017-02-10T09:51:15.124Z,1026
2017-02-10T09:52:17.565Z,1026.1
2017-02-10T09:53:20.072Z,1026
2017-02-10T09:54:22.513Z,1026.1
2017-02-10T09:55:24.812Z,1026.1
2017-02-10T09:56:27.257Z,1026.1
2017-02-10T09:57:29.746Z,1026
2017-02-10T09:58:32.186Z,1026.1
2017-02-10T09:59:34.627Z,1026.1
2017-02-10T10:00:37.069Z,1026.1
2017-02-10T10:01:39.508Z,1026.1
2017-02-10T10:02:41.950Z,1026.1
2017-02-10T10:03:44.393Z,1026.1
2017-02-10T10:04:46.837Z,1026
2017-02-10T10:05:49.309Z,1026
2017-02-10T10:06:51.746Z,1026
2017-02-10T10:07:54.186Z,1026
2017-02-10T10:08:56.622Z,1026
2017-02-10T10:09:59.059Z,1026
2017-02-10T10:11:01.500Z,1026
2017-02-10T10:12:03.943Z,1026
2017-02-10T10:13:06.221Z,1026
2017-02-10T10:15:11.065Z,1026
2017-02-10T10:16:13.502Z,1026.2
2017-02-10T10:17:15.941Z,1026.1
2017-02-10T10:18:18.378Z,1026
2017-02-10T10:19:20.840Z,1025.9
2017-02-10T10:21:25.712Z,1026
2017-02-10T10:22:28.152Z,1026
2017-02-10T10:23:30.590Z,1026
2017-02-10T10:24:33.032Z,1026.1
2017-02-10T10:25:35.468Z,1026
2017-02-10T10:26:37.909Z,1026
2017-02-10T10:27:40.684Z,1026
2017-02-10T10:28:43.121Z,1026
2017-02-10T10:29:45.564Z,1026
2017-02-10T10:30:48.002Z,1026
2017-02-10T10:31:50.465Z,1026
2017-02-10T10:32:52.907Z,1026
2017-02-10T10:33:55.346Z,1026
2017-02-10T10:36:00.193Z,1026
2017-02-10T10:37:02.636Z,1026
2017-02-10T10:38:05.080Z,1025.9
2017-02-10T10:39:07.271Z,1025.9
2017-02-10T10:40:09.876Z,1025.9
2017-02-10T10:41:12.316Z,1025.9
2017-02-10T10:42:14.779Z,1025.9
2017-02-10T10:43:17.222Z,1025.9
2017-02-10T10:44:19.659Z,1026
2017-02-10T10:45:22.100Z,1025.9
2017-02-10T10:46:24.540Z,1026
2017-02-10T10:47:26.980Z,1025.9
2017-02-10T10:48:29.416Z,1025.8
2017-02-10T10:49:31.857Z,1025.9
2017-02-10T10:50:34.297Z,1025.7
2017-02-10T10:51:37.082Z,1025.8
2017-02-10T10:52:39.521Z,1025.7
2017-02-10T10:53:41.961Z,1025.7
2017-02-10T10:54:44.422Z,1025.8
2017-02-10T10:55:46.872Z,1025.7
2017-02-10T10:57:51.720Z,1025.7
2017-02-10T10:58:54.167Z,1025.7
2017-02-10T10:59:56.604Z,1025.7
2017-02-10T11:00:59.088Z,1025.6
2017-02-10T11:02:01.526Z,1025.7
2017-02-10T11:03:03.971Z,1025.7
2017-02-10T11:04:06.411Z,1025.8
2017-02-10T11:05:08.852Z,1025.6
2017-02-10T11:06:11.316Z,1025.7
2017-02-10T11:08:15.992Z,1025.6
2017-02-10T11:09:18.427Z,1025.6
2017-02-10T11:10:21.206Z,1025.6
2017-02-10T11:11:23.671Z,1025.6
2017-02-10T11:12:26.119Z,1025.5
2017-02-10T11:13:28.587Z,1025.5
2017-02-10T11:14:31.025Z,1025.6
2017-02-10T11:15:33.462Z,1025.5
2017-02-10T11:16:35.902Z,1025.5
2017-02-10T11:17:38.338Z,1025.6
2017-02-10T11:18:40.638Z,1025.6
2017-02-10T11:19:43.080Z,1025.6
2017-02-10T11:20:45.523Z,1025.7
2017-02-10T11:21:47.964Z,1025.6
2017-02-10T11:22:50.404Z,1025.6
2017-02-10T11:23:52.847Z,1025.6
2017-02-10T11:24:55.289Z,1025.5
2017-02-10T11:25:57.730Z,1025.6
2017-02-10T11:27:00.677Z,1025.6
2017-02-10T11:28:02.947Z,1025.5
2017-02-10T11:29:05.392Z,1025.5
2017-02-10T11:30:07.837Z,1025.6
2017-02-10T11:31:10.277Z,1025.5
2017-02-10T11:32:12.718Z,1025.5
2017-02-10T11:33:15.157Z,1025.6
2017-02-10T11:34:17.593Z,1025.5
2017-02-10T11:35:20.034Z,1025.5
2017-02-10T11:36:22.474Z,1025.5
2017-02-10T11:37:24.918Z,1025.4
2017-02-10T11:38:27.694Z,1025.5
2017-02-10T11:39:30.131Z,1025.5
2017-02-10T11:40:32.571Z,1025.5
2017-02-10T11:41:35.008Z,1025.5
2017-02-10T11:42:37.448Z,1025.5
2017-02-10T11:43:39.886Z,1025.5
2017-02-10T11:44:42.326Z,1025.5
2017-02-10T11:45:44.810Z,1025.5
2017-02-10T11:46:47.254Z,1025.5
2017-02-10T11:47:49.694Z,1025.4
2017-02-10T11:48:52.135Z,1025.4
2017-02-10T11:49:54.610Z,1025.4
2017-02-10T11:50:57.075Z,1025.4
2017-02-10T11:51:59.515Z,1025.4
2017-02-10T11:53:01.956Z,1025.4
2017-02-10T11:54:04.395Z,1025.5
2017-02-10T11:55:06.837Z,1025.4
2017-02-10T11:56:09.612Z,1025.4
2017-02-10T11:58:14.300Z,1025.4
2017-02-10T11:59:16.763Z,1025.4
2017-02-10T12:00:19.204Z,1025.5
2017-02-10T12:01:21.646Z,1025.5
2017-02-10T12:03:26.834Z,1025.3
2017-02-10T12:04:29.275Z,1025.3
2017-02-10T12:05:31.719Z,1025.3
2017-02-10T12:06:34.159Z,1025.2
2017-02-10T12:07:36.601Z,1025.3
2017-02-10T12:08:39.044Z,1025.2
2017-02-10T12:09:41.484Z,1025.4
2017-02-10T12:10:43.926Z,1025.4
2017-02-10T12:11:46.375Z,1025.2
2017-02-10T12:12:48.818Z,1025.2
2017-02-10T12:13:51.253Z,1025.3
2017-02-10T12:14:53.525Z,1025.2
2017-02-10T12:15:55.962Z,1025.4
2017-02-10T12:16:58.426Z,1025.1
2017-02-10T12:18:01.365Z,1025.1
2017-02-10T12:19:03.807Z,1025.3
2017-02-10T12:20:06.244Z,1025.2
2017-02-10T12:21:08.683Z,1025
2017-02-10T12:22:10.956Z,1025.1
2017-02-10T12:23:13.251Z,1025.1
2017-02-10T12:25:18.433Z,1025.1
2017-02-10T12:26:20.705Z,1025
2017-02-10T12:28:25.883Z,1025
2017-02-10T12:29:28.324Z,1025.1
2017-02-10T12:30:30.763Z,1025
2017-02-10T12:31:33.204Z,1025.1
2017-02-10T12:32:35.670Z,1025.1
2017-02-10T12:33:38.113Z,1025.1
2017-02-10T12:34:40.557Z,1025.1
2017-02-10T12:35:43.034Z,1025
2017-02-10T12:36:45.471Z,1025.1
2017-02-10T12:37:47.912Z,1025.2
2017-02-10T12:38:50.351Z,1025.1
2017-02-10T12:39:52.790Z,1025.2
2017-02-10T12:40:55.237Z,1025.1
2017-02-10T12:41:57.700Z,1025.1
2017-02-10T12:43:00.141Z,1025.1
2017-02-10T12:44:02.582Z,1025.1
2017-02-10T12:45:05.358Z,1025
2017-02-10T12:47:10.204Z,1025.1
2017-02-10T12:48:12.646Z,1025.2
2017-02-10T12:49:15.110Z,1025
2017-02-10T12:50:17.554Z,1025
2017-02-10T12:51:19.994Z,1025
2017-02-10T12:52:22.434Z,1025
2017-02-10T12:53:24.870Z,1025
2017-02-10T12:54:27.307Z,1025
2017-02-10T12:55:29.746Z,1024.9
2017-02-10T12:56:32.209Z,1024.9
2017-02-10T12:57:34.653Z,1024.9
2017-02-10T12:59:39.995Z,1024.9
2017-02-10T13:00:42.436Z,1024.9
2017-02-10T13:01:44.716Z,1025
2017-02-10T13:02:47.161Z,1024.9
2017-02-10T13:03:49.601Z,1024.9
2017-02-10T13:05:54.441Z,1024.9
2017-02-10T13:06:56.881Z,1024.9
2017-02-10T13:07:59.353Z,1024.9
2017-02-10T13:09:01.790Z,1024.9
2017-02-10T13:10:04.233Z,1025
2017-02-10T13:11:07.176Z,1024.9
2017-02-10T13:12:09.448Z,1024.9
2017-02-10T13:13:11.890Z,1024.9
2017-02-10T13:14:14.332Z,1024.9
2017-02-10T13:15:16.773Z,1024.9
2017-02-10T13:16:19.209Z,1024.8
2017-02-10T13:17:21.654Z,1024.8
2017-02-10T13:18:24.090Z,1024.8
2017-02-10T13:19:26.532Z,1024.8
2017-02-10T13:20:28.979Z,1024.8
2017-02-10T13:21:31.421Z,1024.8
2017-02-10T13:22:33.856Z,1024.7
2017-02-10T13:23:36.670Z,1024.8
2017-02-10T13:24:39.131Z,1024.8
2017-02-10T13:25:41.574Z,1024.8
2017-02-10T13:26:44.043Z,1024.8
2017-02-10T13:27:46.487Z,1024.8
2017-02-10T13:28:48.928Z,1024.8
2017-02-10T13:29:51.363Z,1024.8
2017-02-10T13:30:53.804Z,1024.8
2017-02-10T13:31:56.268Z,1024.8
2017-02-10T13:32:58.707Z,1024.9
2017-02-10T13:35:03.556Z,1024.8
2017-02-10T13:36:05.999Z,1024.8
2017-02-10T13:37:08.444Z,1024.8
2017-02-10T13:38:10.888Z,1024.8
2017-02-10T13:39:13.827Z,1024.8
2017-02-10T13:40:16.267Z,1024.8
2017-02-10T13:42:20.893Z,1024.8
2017-02-10T13:43:23.339Z,1024.9
2017-02-10T13:44:25.780Z,1024.8
2017-02-10T13:45:28.216Z,1024.8
2017-02-10T13:46:30.658Z,1024.8
2017-02-10T13:47:33.101Z,1024.9
2017-02-10T13:48:36.045Z,1024.9
2017-02-10T13:49:38.493Z,1024.8
2017-02-10T13:50:40.937Z,1024.9